| time (UTC) | temp C | wind direction | speed KPH | gust KPH | rain 1hr cm | rain 24hr cm | rain mn cm | humidity % | barometer mb |
| 20260506045019 | 19 | 0.0 | 0.0 | 0.00 | 0.00 | 0.00 | 63 | 1013.8 | |
| 20260506044022 | 17 | 0.0 | 0.0 | 0.00 | 0.00 | 0.00 | 73 | 1014.0 | |
| 20260506043019 | 17 | 0.0 | 0.0 | 0.00 | 0.00 | 0.00 | 73 | 1013.8 | |
| 20260506042019 | 17 | 0.0 | 1.6 | 0.00 | 0.00 | 0.00 | 77 | 1013.7 | |
| 20260506041020 | 16 | 0.0 | 0.0 | 0.00 | 0.00 | 0.00 | 81 | 1013.8 | |
| 20260506040020 | 16 | 0.0 | 1.6 | 0.00 | 0.00 | 0.00 | 81 | 1013.7 | |
| 20260506035020 | 16 | 0.0 | 0.0 | 0.00 | 0.00 | 0.00 | 80 | 1013.6 | |
| 20260506034019 | 16 | 0.0 | 0.0 | 0.00 | 0.00 | 0.00 | 76 | 1013.7 | |
| 20260506033020 | 16 | 0.0 | 0.0 | 0.00 | 0.00 | 0.00 | 75 | 1013.5 | |
| 20260506032019 | 16 | 0.0 | 0.0 | 0.00 | 0.00 | 0.00 | 74 | 1013.4 | |
| 20260506031019 | 17 | 0.0 | 0.0 | 0.00 | 0.00 | 0.00 | 72 | 1013.5 | |
| 20260506030019 | 17 | 0.0 | 0.0 | 0.00 | 0.00 | 0.00 | 71 | 1013.6 | |
| 20260506025019 | 17 | 0.0 | 0.0 | 0.00 | 0.00 | 0.00 | 71 | 1013.5 | |
| 20260506024019 | 17 | 0.0 | 0.0 | 0.00 | 0.00 | 0.00 | 71 | 1013.6 | |
| 20260506023039 | 17 | 0.0 | 0.0 | 0.00 | 0.00 | 0.00 | 72 | 1013.5 | |
| 20260506022100 | 17 | 0.0 | 0.0 | 0.00 | 0.00 | 0.00 | 74 | 1013.4 | |
| 20260506021040 | 17 | 0.0 | 0.0 | 0.00 | 0.00 | 0.00 | 76 | 1013.1 | |
| 20260506020019 | 17 | 0.0 | 0.0 | 0.00 | 0.00 | 0.00 | 76 | 1012.9 | |
| 20260506015019 | 18 | 0.0 | 0.0 | 0.00 | 0.00 | 0.00 | 77 | 1012.7 | |
| 20260506014020 | 18 | 0.0 | 0.0 | 0.00 | 0.00 | 0.00 | 76 | 1012.7 | |
| 20260506013019 | 18 | 0.0 | 0.0 | 0.00 | 0.00 | 0.00 | 73 | 1012.8 | |
| 20260506012019 | 19 | 0.0 | 0.0 | 0.00 | 0.00 | 0.00 | 72 | 1012.8 | |
| 20260506011019 | 19 | 0.0 | 0.0 | 0.00 | 0.00 | 0.00 | 70 | 1012.9 | |
| 20260506010019 | 20 | 0.0 | 0.0 | 0.00 | 0.00 | 0.00 | 67 | 1013.1 | |
| 20260506005019 | 20 | 0.0 | 0.0 | 0.00 | 0.00 | 0.00 | 62 | 1012.8 | |
| 20260506004019 | 20 | 0.0 | 0.0 | 0.00 | 0.00 | 0.00 | 60 | 1012.4 | |
| 20260506003019 | 21 | 0.0 | 0.0 | 0.00 | 0.00 | 0.00 | 58 | 1012.6 | |
| 20260506002019 | 21 | 0.0 | 0.0 | 0.00 | 0.00 | 0.00 | 57 | 1012.6 | |
| 20260506001039 | 21 | 0.0 | 0.0 | 0.00 | 0.00 | 0.00 | 56 | 1012.5 | |
| 20260506000020 | 22 | 0.0 | 0.0 | 0.00 | 0.00 | 0.00 | 55 | 1012.8 | |
| 20260505235019 | 22 | 0.0 | 0.0 | 0.00 | 0.00 | 0.00 | 54 | 1012.7 | |
| 20260505234019 | 22 | 0.0 | 0.0 | 0.00 | 0.00 | 0.00 | 56 | 1012.6 | |
| 20260505233019 | 23 | 0.0 | 0.0 | 0.00 | 0.00 | 0.00 | 51 | 1012.6 | |
| 20260505232019 | 23 | 0.0 | 1.6 | 0.00 | 0.00 | 0.00 | 53 | 1012.6 | |
| 20260505231019 | 23 | 0.0 | 1.6 | 0.00 | 0.00 | 0.00 | 52 | 1012.6 | |
| 20260505230019 | 24 | 0.0 | 3.2 | 0.00 | 0.00 | 0.00 | 46 | 1012.6 | |
| 20260505225019 | 25 | 0.0 | 3.2 | 0.00 | 0.00 | 0.00 | 44 | 1012.6 | |
| 20260505224019 | 25 | 0.0 | 3.2 | 0.00 | 0.00 | 0.00 | 42 | 1012.4 | |
| 20260505223039 | 26 | 113 | 1.6 | 4.8 | 0.00 | 0.00 | 0.00 | 42 | 1012.6 |
| 20260505222019 | 26 | 0.0 | 6.4 | 0.00 | 0.00 | 0.00 | 42 | 1012.6 | |
| 20260505221019 | 26 | 113 | 3.2 | 9.7 | 0.00 | 0.00 | 0.00 | 40 | 1012.5 |
| 20260505220019 | 26 | 113 | 1.6 | 6.4 | 0.00 | 0.00 | 0.00 | 40 | 1012.5 |
| 20260505215019 | 26 | 0.0 | 3.2 | 0.00 | 0.00 | 0.00 | 42 | 1012.7 | |
| 20260505214019 | 26 | 113 | 3.2 | 12.9 | 0.00 | 0.00 | 0.00 | 37 | 1012.7 |
| 20260505213019 | 26 | 113 | 1.6 | 3.2 | 0.00 | 0.00 | 0.00 | 40 | 1012.8 |
| 20260505212019 | 26 | 113 | 1.6 | 11.3 | 0.00 | 0.00 | 0.00 | 38 | |
| 20260505211019 | 26 | 113 | 3.2 | 8.0 | 0.00 | 0.00 | 0.00 | 36 | |
| 20260505210019 | 27 | 135 | 1.6 | 6.4 | 0.00 | 0.00 | 0.00 | 38 | |
| 20260505205019 | 27 | 113 | 3.2 | 14.5 | 0.00 | 0.00 | 0.00 | 36 | 1013.0 |
| 20260505204019 | 27 | 90 | 3.2 | 9.7 | 0.00 | 0.00 | 0.00 | 36 | 1013.0 |
| 20260505203019 | 27 | 90 | 1.6 | 11.3 | 0.00 | 0.00 | 0.00 | 39 | 1013.0 |
| 20260505202019 | 27 | 0.0 | 4.8 | 0.00 | 0.00 | 0.00 | 39 | 1013.3 | |
| 20260505201039 | 27 | 113 | 1.6 | 6.4 | 0.00 | 0.00 | 0.00 | 40 | 1013.4 |
| 20260505200019 | 27 | 68 | 3.2 | 9.7 | 0.00 | 0.00 | 0.00 | 38 | 1013.5 |
| 20260505195039 | 27 | 113 | 3.2 | 8.0 | 0.00 | 0.00 | 0.00 | 37 | 1013.7 |
| 20260505194039 | 27 | 68 | 1.6 | 3.2 | 0.00 | 0.00 | 0.00 | 41 | 1013.8 |
| 20260505193039 | 26 | 113 | 1.6 | 4.8 | 0.00 | 0.00 | 0.00 | 41 | 1014.0 |
| 20260505192019 | 26 | 90 | 3.2 | 11.3 | 0.00 | 0.00 | 0.00 | 38 | 1014.2 |
| 20260505191019 | 27 | 0.0 | 4.8 | 0.00 | 0.00 | 0.00 | 40 | 1014.5 | |
| 20260505190019 | 26 | 113 | 1.6 | 9.7 | 0.00 | 0.00 | 0.00 | 41 | 1014.7 |
| 20260505185039 | 26 | 0.0 | 8.0 | 0.00 | 0.00 | 0.00 | 43 | 1014.7 | |
| 20260505184018 | 26 | 113 | 1.6 | 4.8 | 0.00 | 0.00 | 0.00 | 42 | 1014.9 |
| 20260505183019 | 26 | 68 | 1.6 | 4.8 | 0.00 | 0.00 | 0.00 | 39 | 1014.9 |
| 20260505182019 | 26 | 90 | 3.2 | 8.0 | 0.00 | 0.00 | 0.00 | 40 | 1014.9 |
| 20260505181019 | 26 | 113 | 3.2 | 14.5 | 0.00 | 0.00 | 0.00 | 40 | 1014.9 |
| 20260505180038 | 26 | 90 | 1.6 | 4.8 | 0.00 | 0.00 | 0.00 | 41 | 1015.2 |
| 20260505175019 | 26 | 90 | 1.6 | 4.8 | 0.00 | 0.00 | 0.00 | 40 | 1015.4 |
| 20260505174018 | 26 | 113 | 1.6 | 6.4 | 0.00 | 0.00 | 0.00 | 41 | 1015.7 |
| 20260505173019 | 25 | 113 | 3.2 | 8.0 | 0.00 | 0.00 | 0.00 | 40 | 1015.7 |
| 20260505172039 | 26 | 90 | 1.6 | 6.4 | 0.00 | 0.00 | 0.00 | 42 | 1015.9 |
| 20260505171039 | 25 | 0.0 | 4.8 | 0.00 | 0.00 | 0.00 | 40 | 1015.9 | |
| 20260505170018 | 26 | 68 | 1.6 | 6.4 | 0.00 | 0.00 | 0.00 | 41 | 1016.0 |
| 20260505165019 | 26 | 90 | 1.6 | 6.4 | 0.00 | 0.00 | 0.00 | 43 | 1015.9 |
| 20260505164018 | 25 | 90 | 1.6 | 4.8 | 0.00 | 0.00 | 0.00 | 45 | 1015.9 |
| 20260505163018 | 24 | 113 | 1.6 | 3.2 | 0.00 | 0.00 | 0.00 | 47 | 1015.9 |
| 20260505162019 | 24 | 90 | 1.6 | 14.5 | 0.00 | 0.00 | 0.00 | 48 | 1016.2 |
| 20260505161018 | 25 | 113 | 1.6 | 3.2 | 0.00 | 0.00 | 0.00 | 50 | 1016.2 |
| 20260505153038 | 23 | 0.0 | 1.6 | 0.00 | 0.00 | 0.00 | 53 | 1016.5 | |
| 20260505152018 | 22 | 0.0 | 1.6 | 0.00 | 0.00 | 0.00 | 56 | 1016.8 | |
| 20260505151018 | 21 | 315 | 1.6 | 4.8 | 0.00 | 0.00 | 0.00 | 58 | 1016.7 |
| 20260505125018 | 11 | 0.0 | 1.6 | 0.00 | 0.00 | 0.00 | 97 | 1016.0 | |
| 20260505124018 | 10 | 0.0 | 0.0 | 0.00 | 0.00 | 0.00 | 97 | 1015.9 | |
| 20260505123018 | 10 | 0.0 | 0.0 | 0.00 | 0.00 | 0.00 | 97 | 1016.0 | |
| 20260505122020 | 8 | 0.0 | 0.0 | 0.00 | 0.00 | 0.00 | 97 | 1016.0 | |
| 20260505121020 | 8 | 0.0 | 0.0 | 0.00 | 0.00 | 0.00 | 97 | 1015.7 | |
| 20260505120018 | 7 | 0.0 | 0.0 | 0.00 | 0.00 | 0.00 | 96 | 1015.6 | |
| 20260505115020 | 7 | 0.0 | 0.0 | 0.00 | 0.00 | 0.00 | 96 | 1015.5 | |
| 20260505114020 | 7 | 0.0 | 0.0 | 0.00 | 0.00 | 0.00 | 96 | 1015.4 | |
| 20260505113018 | 7 | 0.0 | 0.0 | 0.00 | 0.00 | 0.00 | 96 | 1015.3 | |
| 20260505112018 | 6 | 0.0 | 0.0 | 0.00 | 0.00 | 0.00 | 96 | 1015.3 | |
| 20260505111040 | 6 | 0.0 | 0.0 | 0.00 | 0.00 | 0.00 | 96 | 1015.4 | |
| 20260505102018 | 7 | 0.0 | 0.0 | 0.00 | 0.00 | 0.00 | 95 | 1015.2 | |
| 20260505101038 | 7 | 23 | 1.6 | 4.8 | 0.00 | 0.00 | 0.00 | 95 | 1015.2 |
| 20260505100020 | 7 | 0.0 | 1.6 | 0.00 | 0.00 | 0.00 | 95 | 1015.1 | |
| 20260505095040 | 7 | 0.0 | 0.0 | 0.00 | 0.00 | 0.00 | 95 | 1015.0 | |
| 20260505094018 | 7 | 0.0 | 0.0 | 0.00 | 0.00 | 0.00 | 95 | 1015.1 | |
| 20260505093040 | 7 | 0.0 | 0.0 | 0.00 | 0.00 | 0.00 | 95 | 1015.2 | |
| 20260505092020 | 7 | 0.0 | 0.0 | 0.00 | 0.00 | 0.00 | 95 | 1015.0 | |
| 20260505091019 | 7 | 0.0 | 0.0 | 0.00 | 0.00 | 0.00 | 95 | 1015.1 | |
| 20260505090019 | 7 | 0.0 | 3.2 | 0.00 | 0.00 | 0.00 | 95 | 1015.1 | |
| 20260505085024 | -17 | 0.0 | 0.0 | 0.00 | 0.00 | 0.00 | |||
| 20260505084019 | -17 | 0.0 | 0.0 | 0.00 | 0.00 | 0.00 | |||
| 20260505083030 | -17 | 0.0 | 0.0 | 0.00 | 0.00 | 0.00 | |||
| 20260505082607 | 5 | 0.0 | 0.0 | 0.00 | 0.00 | 0.00 | 59 | 1014.8 | |
| 20260505081540 | 7 | 0.0 | 0.0 | 0.00 | 0.00 | 0.00 | 59 | 1015.0 | |
| 20260505080540 | 7 | 0.0 | 0.0 | 0.00 | 0.00 | 0.00 | 60 | 1014.6 | |
| 20260505075520 | 7 | 0.0 | 0.0 | 0.00 | 0.00 | 0.00 | 60 | 1014.5 | |
| 20260505074520 | 8 | 0.0 | 0.0 | 0.00 | 0.00 | 0.00 | 58 | 1014.5 | |
| 20260505073540 | 8 | 0.0 | 0.0 | 0.00 | 0.00 | 0.00 | 58 | 1014.5 | |
| 20260505072540 | 8 | 0.0 | 0.0 | 0.00 | 0.00 | 0.00 | 58 | 1014.5 | |
| 20260505071640 | 8 | 0.0 | 0.0 | 0.00 | 0.00 | 0.00 | 59 | 1014.6 | |
| 20260505070520 | 8 | 0.0 | 0.0 | 0.00 | 0.00 | 0.00 | 60 | 1014.6 | |
| 20260505065520 | 8 | 0.0 | 0.0 | 0.00 | 0.00 | 0.00 | 62 | 1014.7 | |
| 20260505064520 | 8 | 0.0 | 0.0 | 0.00 | 0.00 | 0.00 | 65 | 1014.7 | |
| 20260505063519 | 8 | 0.0 | 0.0 | 0.00 | 0.00 | 0.00 | 66 | 1014.8 | |
| 20260505062520 | 8 | 0.0 | 0.0 | 0.00 | 0.00 | 0.00 | 67 | 1014.9 | |
| 20260505061519 | 9 | 0.0 | 0.0 | 0.00 | 0.00 | 0.00 | 68 | 1014.9 | |
| 20260505060540 | 9 | 0.0 | 0.0 | 0.00 | 0.00 | 0.00 | 69 | 1014.9 | |
| 20260505055519 | 9 | 0.0 | 0.0 | 0.00 | 0.00 | 0.00 | 70 | 1015.0 | |
| 20260505054519 | 9 | 0.0 | 0.0 | 0.00 | 0.00 | 0.00 | 70 | 1014.8 | |
| 20260505053519 | 10 | 0.0 | 0.0 | 0.00 | 0.00 | 0.00 | 73 | 1014.9 | |
| 20260505052520 | 10 | 0.0 | 0.0 | 0.00 | 0.00 | 0.00 | 75 | 1014.9 | |
| 20260505051520 | 10 | 0.0 | 0.0 | 0.00 | 0.00 | 0.00 | 76 | 1014.9 | |
| 20260505050519 | 10 | 0.0 | 0.0 | 0.00 | 0.00 | 0.00 | 77 | 1015.0 |